createdAt,value
2023-01-22T00:03:15.417Z,15.85
2023-01-22T00:05:43.553Z,11.50
2023-01-22T00:12:57.873Z,12.88
2023-01-22T00:15:26.067Z,13.60
2023-01-22T00:17:54.077Z,13.65
2023-01-22T00:20:22.098Z,13.90
2023-01-22T00:23:49.278Z,13.95
2023-01-22T00:26:32.448Z,14.60
2023-01-22T00:29:00.431Z,15.80
2023-01-22T00:31:29.893Z,14.90
2023-01-22T00:33:58.714Z,16.55
2023-01-22T00:36:27.291Z,14.65
2023-01-22T00:38:59.068Z,15.52
2023-01-22T00:41:54.685Z,15.20
2023-01-22T00:44:49.737Z,14.43
2023-01-22T00:47:18.113Z,14.25
2023-01-22T00:53:55.249Z,14.38
2023-01-22T01:01:12.628Z,15.40
2023-01-22T01:03:41.432Z,14.93
2023-01-22T01:10:35.450Z,14.30
2023-01-22T01:13:29.318Z,16.17
2023-01-22T01:16:02.896Z,15.98
2023-01-22T01:19:21.029Z,14.70
2023-01-22T01:22:08.521Z,13.98
2023-01-22T01:24:36.900Z,15.70
2023-01-22T01:27:05.060Z,16.50
2023-01-22T01:29:32.858Z,14.60
2023-01-22T01:32:00.993Z,14.30
2023-01-22T01:34:28.816Z,14.40
2023-01-22T01:36:57.064Z,14.45
2023-01-22T01:39:24.708Z,14.50
2023-01-22T01:48:03.113Z,14.98
2023-01-22T01:50:31.301Z,13.23
2023-01-22T01:53:00.925Z,13.85
2023-01-22T01:55:31.991Z,15.10
2023-01-22T01:58:03.721Z,14.73
2023-01-22T02:00:37.887Z,16.73
2023-01-22T02:03:05.928Z,13.45
2023-01-22T02:05:38.532Z,13.60
2023-01-22T02:08:08.690Z,12.93
2023-01-22T02:11:54.260Z,12.48
2023-01-22T02:14:28.146Z,12.30
2023-01-22T02:17:13.669Z,12.20
2023-01-22T02:19:42.367Z,13.63
2023-01-22T02:22:14.373Z,13.07
2023-01-22T02:24:42.031Z,13.18
2023-01-22T02:27:10.768Z,14.48
2023-01-22T02:29:39.057Z,16.30
2023-01-22T02:32:33.526Z,15.05
2023-01-22T02:35:01.250Z,12.70
2023-01-22T02:37:29.202Z,13.68
2023-01-22T02:39:57.275Z,13.45
2023-01-22T02:46:57.531Z,13.13
2023-01-22T02:49:27.436Z,12.67
2023-01-22T02:51:55.463Z,13.63
2023-01-22T02:54:24.578Z,11.85
2023-01-22T02:56:52.678Z,13.80
2023-01-22T02:59:20.752Z,13.48
2023-01-22T03:01:48.771Z,13.33
2023-01-22T03:04:16.813Z,13.30
2023-01-22T03:10:45.146Z,15.43
2023-01-22T03:21:55.899Z,14.85
2023-01-22T03:24:23.992Z,16.80
2023-01-22T03:26:52.155Z,15.48
2023-01-22T03:29:20.326Z,14.95
2023-01-22T03:31:49.010Z,14.73
2023-01-22T03:34:19.290Z,14.95
2023-01-22T03:36:52.861Z,14.93
2023-01-22T03:39:21.220Z,15.63
2023-01-22T03:41:48.848Z,14.45
2023-01-22T03:44:17.498Z,15.63
2023-01-22T03:46:45.527Z,14.13
2023-01-22T03:58:38.356Z,13.63
2023-01-22T04:01:13.529Z,13.40
2023-01-22T04:03:45.571Z,14.35
2023-01-22T04:06:14.041Z,14.55
2023-01-22T04:08:46.568Z,15.70
2023-01-22T04:11:15.227Z,16.20
2023-01-22T04:13:44.870Z,15.60
2023-01-22T04:16:14.561Z,16.17
2023-01-22T04:19:25.842Z,17.60
2023-01-22T04:23:16.710Z,17.45
2023-01-22T04:30:36.465Z,14.03
2023-01-22T04:33:23.865Z,15.85
2023-01-22T04:36:12.093Z,16.85
2023-01-22T04:38:40.521Z,15.73
2023-01-22T04:41:09.314Z,24.55
2023-01-22T04:43:37.330Z,22.37
2023-01-22T04:46:05.136Z,21.23
2023-01-22T04:49:50.036Z,22.33
2023-01-22T04:52:19.257Z,27.42
2023-01-22T04:54:47.259Z,21.27
2023-01-22T04:57:44.662Z,16.97
2023-01-22T05:00:13.335Z,16.90
2023-01-22T05:02:41.352Z,16.75
2023-01-22T05:05:11.141Z,20.48
2023-01-22T05:07:38.731Z,17.08
2023-01-22T05:15:15.048Z,16.48
2023-01-22T05:17:53.362Z,14.10
2023-01-22T05:20:21.833Z,14.80
2023-01-22T05:22:49.942Z,15.00
2023-01-22T05:25:21.843Z,15.70
2023-01-22T05:27:49.771Z,15.73
2023-01-22T05:30:54.807Z,16.25
2023-01-22T05:34:05.870Z,19.67
2023-01-22T05:36:34.072Z,20.00
2023-01-22T05:39:08.514Z,41.07
2023-01-22T05:42:52.112Z,29.48
2023-01-22T05:45:20.325Z,26.35
2023-01-22T05:48:07.692Z,19.70
2023-01-22T05:50:41.306Z,20.42
2023-01-22T05:53:12.621Z,23.63
2023-01-22T05:55:40.578Z,18.98
2023-01-22T06:06:59.532Z,22.65
2023-01-22T06:10:44.267Z,20.40
2023-01-22T06:13:12.257Z,20.13
2023-01-22T06:15:40.845Z,20.10
2023-01-22T06:18:24.562Z,19.15
2023-01-22T06:20:53.258Z,36.70
2023-01-22T06:24:37.353Z,40.37
2023-01-22T06:27:07.407Z,33.13
2023-01-22T06:30:03.570Z,29.90
2023-01-22T06:33:46.144Z,24.30
2023-01-22T06:37:08.319Z,25.73
2023-01-22T06:39:39.039Z,32.27
2023-01-22T06:42:43.590Z,26.88
2023-01-22T06:46:02.312Z,35.20
2023-01-22T06:49:01.995Z,34.60
2023-01-22T06:51:30.629Z,33.60
2023-01-22T06:53:59.863Z,29.93
2023-01-22T06:56:28.733Z,22.77
2023-01-22T06:59:03.090Z,22.08
2023-01-22T07:01:33.484Z,17.88
2023-01-22T07:04:01.244Z,20.52
2023-01-22T07:06:29.314Z,21.67
2023-01-22T07:08:57.336Z,17.00
2023-01-22T07:11:25.386Z,16.35
2023-01-22T07:13:52.958Z,13.43
2023-01-22T07:16:21.180Z,14.02
2023-01-22T07:18:48.884Z,12.10
2023-01-22T07:21:17.111Z,14.50
2023-01-22T07:23:44.783Z,19.67
2023-01-22T07:26:21.720Z,16.73
2023-01-22T07:28:49.474Z,14.98
2023-01-22T07:31:17.578Z,15.03
2023-01-22T07:33:45.203Z,14.15
2023-01-22T07:36:15.695Z,16.42
2023-01-22T07:38:43.382Z,13.20
2023-01-22T07:41:25.154Z,11.95
2023-01-22T07:43:53.993Z,16.23
2023-01-22T07:46:23.711Z,16.52
2023-01-22T07:48:55.306Z,19.05
2023-01-22T07:51:23.813Z,17.35
2023-01-22T07:53:52.304Z,22.10
2023-01-22T07:56:20.496Z,16.77
2023-01-22T07:58:48.357Z,17.75
2023-01-22T08:01:17.408Z,17.02
2023-01-22T08:03:45.680Z,17.13
2023-01-22T08:06:21.041Z,14.57
2023-01-22T08:08:50.702Z,14.93
2023-01-22T08:11:21.714Z,16.92
2023-01-22T08:13:49.538Z,16.23
2023-01-22T08:16:19.836Z,16.88
2023-01-22T08:18:52.864Z,17.17
2023-01-22T08:21:21.303Z,27.13
2023-01-22T08:23:49.407Z,17.98
2023-01-22T08:26:17.585Z,16.52
2023-01-22T08:28:45.559Z,15.35
2023-01-22T08:31:26.352Z,18.30
2023-01-22T08:33:56.155Z,18.63
2023-01-22T08:36:24.175Z,19.20
2023-01-22T08:38:52.083Z,17.77
2023-01-22T08:41:20.363Z,16.38
2023-01-22T08:43:48.314Z,28.08
2023-01-22T08:46:16.495Z,20.50
2023-01-22T08:48:44.655Z,18.90
2023-01-22T08:51:13.273Z,20.08
2023-01-22T08:53:41.255Z,16.92
2023-01-22T08:56:17.681Z,16.20
2023-01-22T09:00:09.727Z,14.93
2023-01-22T09:02:52.787Z,15.63
2023-01-22T09:05:48.721Z,15.25
2023-01-22T09:08:22.284Z,14.88
2023-01-22T09:15:41.248Z,13.63
2023-01-22T09:18:10.504Z,16.17
2023-01-22T09:20:40.497Z,15.73
2023-01-22T09:28:05.391Z,14.90
2023-01-22T09:30:48.060Z,15.67
2023-01-22T09:33:18.011Z,16.60
2023-01-22T09:35:46.168Z,16.50
2023-01-22T09:39:16.663Z,16.88
2023-01-22T09:41:57.588Z,15.70
2023-01-22T09:44:30.643Z,16.97
2023-01-22T09:51:37.535Z,21.15
2023-01-22T09:54:33.463Z,23.58
2023-01-22T09:57:30.810Z,17.92
2023-01-22T10:00:00.118Z,14.60
2023-01-22T10:02:42.256Z,17.05
2023-01-22T10:05:39.678Z,15.30
2023-01-22T10:08:28.940Z,17.75
2023-01-22T10:10:59.330Z,18.60
2023-01-22T10:13:37.115Z,18.93
2023-01-22T10:16:07.120Z,17.17
2023-01-22T10:19:34.098Z,16.08
2023-01-22T10:22:48.051Z,15.70
2023-01-22T10:25:22.618Z,17.08
2023-01-22T10:28:23.905Z,18.50
2023-01-22T10:30:58.086Z,20.65
2023-01-22T10:33:29.781Z,18.15
2023-01-22T10:35:57.744Z,17.63
2023-01-22T10:38:33.016Z,13.80
2023-01-22T10:41:03.090Z,10.13
2023-01-22T10:43:34.359Z,11.05
2023-01-22T10:46:41.241Z,12.25
2023-01-22T10:49:17.659Z,12.02
2023-01-22T10:52:06.094Z,13.48
2023-01-22T10:54:40.307Z,22.83
2023-01-22T10:57:40.374Z,14.27
2023-01-22T11:00:16.299Z,26.35
2023-01-22T11:02:47.554Z,26.63
2023-01-22T11:05:24.502Z,15.85
2023-01-22T11:08:00.684Z,11.27
2023-01-22T11:10:59.610Z,12.57
2023-01-22T11:13:35.943Z,13.82
2023-01-22T11:16:16.795Z,15.30
2023-01-22T11:19:07.999Z,14.50
2023-01-22T11:21:51.266Z,15.00
2023-01-22T11:24:38.064Z,15.57
2023-01-22T11:27:15.264Z,14.80
2023-01-22T11:30:04.867Z,14.50
2023-01-22T11:33:05.595Z,13.75
2023-01-22T11:35:39.434Z,13.83
2023-01-22T11:38:10.544Z,13.93
2023-01-22T11:41:00.837Z,13.30
2023-01-22T11:43:59.903Z,13.40
2023-01-22T11:46:52.362Z,14.10
2023-01-22T11:49:39.883Z,19.83
2023-01-22T11:52:37.739Z,17.73
2023-01-22T11:56:13.453Z,17.15
2023-01-22T11:59:19.849Z,18.55
2023-01-22T12:02:04.293Z,18.48
2023-01-22T12:04:59.013Z,18.17
2023-01-22T12:07:39.149Z,18.40
2023-01-22T12:10:54.932Z,20.15
2023-01-22T12:13:45.905Z,22.30
2023-01-22T12:16:45.405Z,22.95
2023-01-22T12:19:32.635Z,21.33
2023-01-22T12:22:15.308Z,18.63
2023-01-22T12:24:55.748Z,19.13
2023-01-22T12:27:49.617Z,17.88
2023-01-22T12:35:02.004Z,20.73
2023-01-22T12:39:18.291Z,22.73
2023-01-22T12:41:46.543Z,27.20
2023-01-22T12:48:47.088Z,31.58
2023-01-22T12:52:54.183Z,36.53
2023-01-22T12:59:54.734Z,40.00
2023-01-22T13:03:43.577Z,42.45
2023-01-22T13:10:37.831Z,34.40
2023-01-22T13:14:21.199Z,36.47
2023-01-22T13:16:56.818Z,34.38
2023-01-22T13:25:56.677Z,33.72
2023-01-22T13:28:26.227Z,30.63
2023-01-22T13:31:15.561Z,29.45
2023-01-22T13:34:23.803Z,27.63
2023-01-22T13:36:52.252Z,27.55
2023-01-22T13:48:19.209Z,25.58
2023-01-22T13:52:06.415Z,27.15
2023-01-22T13:59:11.652Z,23.52
2023-01-22T14:01:39.755Z,21.27
2023-01-22T14:04:34.972Z,21.95
2023-01-22T14:07:06.918Z,21.13
2023-01-22T14:15:05.143Z,23.70
2023-01-22T14:17:34.607Z,18.00
2023-01-22T14:20:56.498Z,15.85
2023-01-22T14:23:24.414Z,15.73
2023-01-22T14:26:16.628Z,12.85
2023-01-22T14:28:47.008Z,11.48
2023-01-22T14:31:18.968Z,12.27
2023-01-22T14:33:48.584Z,12.20
2023-01-22T14:40:17.578Z,11.77
2023-01-22T14:42:49.984Z,13.75
2023-01-22T14:46:13.533Z,13.13
2023-01-22T14:52:31.709Z,18.02
2023-01-22T14:55:08.068Z,16.48
2023-01-22T15:06:41.143Z,18.10
2023-01-22T15:09:16.340Z,20.75
2023-01-22T15:11:50.891Z,20.13
2023-01-22T15:14:18.560Z,17.10
2023-01-22T15:16:47.777Z,16.80
2023-01-22T15:19:54.083Z,18.83
2023-01-22T15:22:30.092Z,18.52
2023-01-22T15:30:50.847Z,18.50
2023-01-22T15:33:21.451Z,15.67
2023-01-22T15:40:21.489Z,16.30
2023-01-22T15:44:08.330Z,17.27
2023-01-22T15:46:49.554Z,17.80
2023-01-22T15:49:18.491Z,17.20
2023-01-22T15:51:46.485Z,18.55
2023-01-22T15:54:16.548Z,19.25
2023-01-22T15:57:17.518Z,18.02
2023-01-22T16:04:05.717Z,19.20
2023-01-22T16:07:08.171Z,22.80
2023-01-22T16:09:37.093Z,22.50
2023-01-22T16:13:26.370Z,22.70
2023-01-22T16:16:13.403Z,40.70
2023-01-22T16:18:45.815Z,24.30
2023-01-22T16:21:14.999Z,22.75
2023-01-22T16:23:46.121Z,23.42
2023-01-22T16:26:41.736Z,21.98
2023-01-22T16:29:14.343Z,25.80
2023-01-22T16:31:44.696Z,30.93
2023-01-22T16:34:16.889Z,26.13
2023-01-22T16:36:46.447Z,28.98
2023-01-22T16:39:19.857Z,28.70
2023-01-22T16:41:51.832Z,40.28
2023-01-22T16:44:27.708Z,56.43
2023-01-22T16:46:58.050Z,59.25
2023-01-22T16:49:31.788Z,40.45
2023-01-22T16:52:49.734Z,43.88
2023-01-22T16:55:18.129Z,49.22
2023-01-22T16:57:46.076Z,56.07
2023-01-22T17:00:14.675Z,38.35
2023-01-22T17:02:45.506Z,43.45
2023-01-22T17:05:14.252Z,38.78
2023-01-22T17:07:42.272Z,39.47
2023-01-22T17:10:11.146Z,38.80
2023-01-22T17:12:38.885Z,39.67
2023-01-22T17:15:32.571Z,49.38
2023-01-22T17:18:00.426Z,47.83
2023-01-22T17:20:32.994Z,50.22
2023-01-22T17:23:00.761Z,51.87
2023-01-22T17:25:33.068Z,28.55
2023-01-22T17:28:00.907Z,28.05
2023-01-22T17:30:28.934Z,28.08
2023-01-22T17:32:56.759Z,29.20
2023-01-22T17:35:24.815Z,27.17
2023-01-22T17:37:52.501Z,25.88
2023-01-22T17:40:53.943Z,28.88
2023-01-22T17:43:21.779Z,32.80
2023-01-22T17:45:50.692Z,51.05
2023-01-22T17:48:20.974Z,36.03
2023-01-22T17:50:55.550Z,28.08
2023-01-22T17:53:23.317Z,29.40
2023-01-22T17:55:51.293Z,31.70
2023-01-22T17:58:19.236Z,28.60
2023-01-22T18:00:49.366Z,40.03
2023-01-22T18:03:17.123Z,26.00
2023-01-22T18:05:45.105Z,33.53
2023-01-22T18:08:12.929Z,35.15
2023-01-22T18:10:40.818Z,38.28
2023-01-22T18:13:08.638Z,38.30
2023-01-22T18:15:59.897Z,38.83
2023-01-22T18:18:49.966Z,38.28
2023-01-22T18:21:22.259Z,34.50
2023-01-22T18:23:50.635Z,36.10
2023-01-22T18:26:23.307Z,32.07
2023-01-22T18:29:11.704Z,33.25
2023-01-22T18:31:42.571Z,33.53
2023-01-22T18:34:12.319Z,31.70
2023-01-22T18:36:42.740Z,32.33
2023-01-22T18:39:19.619Z,37.03
2023-01-22T18:41:53.970Z,36.38
2023-01-22T18:44:25.227Z,37.90
2023-01-22T18:46:57.752Z,37.03
2023-01-22T18:49:26.951Z,38.22
2023-01-22T18:52:01.276Z,37.37
2023-01-22T18:54:31.985Z,44.63
2023-01-22T18:57:00.227Z,46.58
2023-01-22T18:59:27.978Z,57.75
2023-01-22T19:01:58.099Z,47.92
2023-01-22T19:04:28.363Z,42.90
2023-01-22T19:06:59.907Z,39.42
2023-01-22T19:09:32.063Z,39.78
2023-01-22T19:12:02.285Z,40.25
2023-01-22T19:14:37.379Z,40.25
2023-01-22T19:17:07.438Z,43.60
2023-01-22T19:19:35.097Z,36.78
2023-01-22T19:22:07.990Z,35.63
2023-01-22T19:24:35.741Z,37.70
2023-01-22T19:27:04.546Z,35.15
2023-01-22T19:29:35.045Z,33.60
2023-01-22T19:32:05.148Z,43.03
2023-01-22T19:34:32.858Z,40.25
2023-01-22T19:37:50.571Z,40.90
2023-01-22T19:40:34.580Z,41.25
2023-01-22T19:43:09.464Z,41.30
2023-01-22T19:45:37.602Z,41.88
2023-01-22T19:48:07.307Z,54.42
2023-01-22T19:50:35.123Z,44.40
2023-01-22T19:53:03.367Z,48.28
2023-01-22T19:55:35.072Z,42.33
2023-01-22T19:58:04.131Z,34.60
2023-01-22T20:00:41.311Z,30.40
2023-01-22T20:03:13.166Z,30.50
2023-01-22T20:05:46.949Z,27.13
2023-01-22T20:11:33.170Z,25.08
2023-01-22T20:14:11.402Z,26.55
2023-01-22T20:16:54.848Z,25.35
2023-01-22T20:19:23.452Z,23.63
2023-01-22T20:22:07.273Z,22.80
2023-01-22T20:24:35.455Z,25.45
2023-01-22T20:27:03.056Z,22.90
2023-01-22T20:29:31.258Z,23.83
2023-01-22T20:31:59.799Z,25.45
2023-01-22T20:34:28.135Z,24.97
2023-01-22T20:37:07.702Z,23.98
2023-01-22T20:39:37.458Z,24.13
2023-01-22T20:42:05.683Z,23.60
2023-01-22T20:44:35.299Z,24.17
2023-01-22T20:47:10.460Z,23.50
2023-01-22T20:49:47.060Z,22.30
2023-01-22T20:52:16.190Z,22.48
2023-01-22T20:55:00.444Z,22.80
2023-01-22T20:57:31.245Z,22.52
2023-01-22T20:59:59.442Z,23.20
2023-01-22T21:02:27.412Z,23.48
2023-01-22T21:04:57.049Z,23.58
2023-01-22T21:07:25.013Z,24.17
2023-01-22T21:09:56.821Z,23.50
2023-01-22T21:12:24.833Z,24.30
2023-01-22T21:14:54.812Z,24.67
2023-01-22T21:17:22.718Z,25.98
2023-01-22T21:19:52.125Z,26.38
2023-01-22T21:22:20.000Z,26.08
2023-01-22T21:24:48.001Z,26.17
2023-01-22T21:27:16.850Z,25.08
2023-01-22T21:29:46.110Z,26.50
2023-01-22T21:32:15.649Z,25.52
2023-01-22T21:34:43.885Z,27.35
2023-01-22T21:37:11.594Z,26.67
2023-01-22T21:39:45.611Z,26.73
2023-01-22T21:42:32.022Z,25.60
2023-01-22T21:45:18.655Z,25.38
2023-01-22T21:47:46.453Z,26.40
2023-01-22T21:50:14.469Z,24.87
2023-01-22T21:52:44.805Z,26.42
2023-01-22T21:55:16.970Z,26.13
2023-01-22T21:57:48.084Z,25.42
2023-01-22T22:00:19.279Z,26.48
2023-01-22T22:04:07.289Z,24.53
2023-01-22T22:06:36.987Z,22.90
2023-01-22T22:09:08.003Z,24.52
2023-01-22T22:12:03.123Z,23.50
2023-01-22T22:15:00.745Z,26.92
2023-01-22T22:17:32.434Z,28.53
2023-01-22T22:20:00.426Z,24.45
2023-01-22T22:22:28.388Z,25.85
2023-01-22T22:24:56.349Z,28.67
2023-01-22T22:27:27.004Z,28.80
2023-01-22T22:29:55.680Z,31.47
2023-01-22T22:32:23.658Z,36.67
2023-01-22T22:34:51.483Z,29.40
2023-01-22T22:37:19.468Z,29.88
2023-01-22T22:39:47.552Z,36.33
2023-01-22T22:42:19.395Z,42.47
2023-01-22T22:44:47.252Z,30.80
2023-01-22T22:47:15.445Z,25.23
2023-01-22T22:49:43.621Z,27.70
2023-01-22T22:52:13.565Z,44.10
2023-01-22T22:54:41.553Z,26.83
2023-01-22T22:57:09.689Z,30.40
2023-01-22T22:59:37.621Z,27.83
2023-01-22T23:02:06.468Z,25.77
2023-01-22T23:04:34.252Z,25.40
2023-01-22T23:07:02.621Z,30.43
2023-01-22T23:09:30.608Z,28.05
2023-01-22T23:12:03.670Z,28.85
2023-01-22T23:14:31.377Z,31.15
2023-01-22T23:17:05.152Z,28.50
2023-01-22T23:19:32.756Z,30.27
2023-01-22T23:22:01.589Z,41.75
2023-01-22T23:24:29.576Z,32.67
2023-01-22T23:26:57.896Z,29.52
2023-01-22T23:29:27.195Z,28.60
2023-01-22T23:31:56.399Z,28.37
2023-01-22T23:34:24.369Z,31.90
2023-01-22T23:36:55.769Z,30.73
2023-01-22T23:39:23.603Z,28.05
2023-01-22T23:41:51.829Z,28.15
2023-01-22T23:44:19.767Z,26.70
2023-01-22T23:46:47.740Z,26.10
2023-01-22T23:49:15.500Z,27.77
2023-01-22T23:51:45.510Z,35.45
2023-01-22T23:54:13.368Z,27.13
2023-01-22T23:56:41.309Z,31.50
2023-01-22T23:59:12.996Z,30.75
